createdAt,value
2019-06-27T00:00:30.808Z,26.09
2019-06-27T00:03:00.508Z,26.08
2019-06-27T00:05:30.421Z,26.05
2019-06-27T00:08:00.144Z,25.94
2019-06-27T00:10:29.774Z,25.93
2019-06-27T00:12:59.297Z,25.88
2019-06-27T00:15:29.060Z,25.78
2019-06-27T00:17:58.723Z,25.68
2019-06-27T00:20:28.481Z,25.60
2019-06-27T00:22:58.182Z,25.63
2019-06-27T00:25:27.895Z,25.68
2019-06-27T00:27:57.480Z,25.66
2019-06-27T00:30:27.351Z,25.67
2019-06-27T00:32:56.903Z,25.64
2019-06-27T00:35:26.656Z,25.68
2019-06-27T00:37:56.450Z,25.64
2019-06-27T00:40:26.289Z,25.62
2019-06-27T00:42:56.132Z,25.56
2019-06-27T00:45:25.945Z,25.53
2019-06-27T00:47:55.725Z,25.47
2019-06-27T00:50:25.482Z,25.43
2019-06-27T00:52:55.141Z,25.43
2019-06-27T00:55:24.834Z,25.45
2019-06-27T00:57:54.481Z,25.34
2019-06-27T01:00:24.431Z,25.38
2019-06-27T01:02:54.057Z,25.37
2019-06-27T01:05:23.798Z,25.36
2019-06-27T01:07:53.472Z,25.28
2019-06-27T01:10:23.588Z,25.24
2019-06-27T01:12:53.381Z,25.23
2019-06-27T01:15:23.355Z,25.14
2019-06-27T01:17:53.026Z,25.13
2019-06-27T01:20:22.993Z,25.08
2019-06-27T01:22:52.746Z,25.12
2019-06-27T01:25:22.677Z,25.11
2019-06-27T01:27:52.520Z,25.09
2019-06-27T01:30:24.017Z,25.07
2019-06-27T01:32:53.592Z,25.15
2019-06-27T01:35:23.612Z,25.10
2019-06-27T01:37:53.144Z,25.06
2019-06-27T01:40:23.044Z,25.04
2019-06-27T01:42:52.844Z,24.99
2019-06-27T01:45:28.189Z,24.93
2019-06-27T01:47:57.912Z,24.89
2019-06-27T01:50:27.704Z,24.85
2019-06-27T01:52:57.330Z,24.83
2019-06-27T01:55:27.149Z,24.85
2019-06-27T01:57:56.955Z,24.78
2019-06-27T02:00:27.482Z,24.81
2019-06-27T02:02:57.425Z,24.76
2019-06-27T02:05:27.058Z,24.82
2019-06-27T02:07:56.804Z,24.78
2019-06-27T02:10:26.658Z,24.80
2019-06-27T02:12:56.450Z,24.71
2019-06-27T02:15:26.370Z,24.74
2019-06-27T02:17:56.245Z,24.67
2019-06-27T02:20:26.007Z,24.72
2019-06-27T02:22:55.741Z,24.76
2019-06-27T02:25:26.674Z,24.68
2019-06-27T02:28:03.764Z,24.70
2019-06-27T02:30:39.538Z,24.70
2019-06-27T02:33:09.917Z,24.70
2019-06-27T02:35:39.828Z,24.63
2019-06-27T02:38:12.422Z,24.54
2019-06-27T02:40:42.324Z,24.56
2019-06-27T02:43:11.885Z,24.49
2019-06-27T02:45:41.564Z,24.46
2019-06-27T02:48:11.423Z,24.48
2019-06-27T02:50:41.065Z,24.49
2019-06-27T02:53:10.781Z,24.50
2019-06-27T02:55:40.455Z,24.46
2019-06-27T02:58:29.111Z,24.39
2019-06-27T03:00:41.708Z,24.37
2019-06-27T03:03:11.621Z,24.33
2019-06-27T03:05:41.521Z,24.31
2019-06-27T03:08:12.392Z,24.29
2019-06-27T03:10:42.301Z,24.23
2019-06-27T03:13:12.129Z,24.20
2019-06-27T03:15:41.685Z,24.11
2019-06-27T03:18:11.353Z,24.12
2019-06-27T03:20:40.949Z,24.10
2019-06-27T03:23:10.803Z,24.16
2019-06-27T03:25:40.582Z,24.16
2019-06-27T03:28:11.143Z,24.11
2019-06-27T03:30:40.941Z,24.16
2019-06-27T03:33:10.541Z,24.14
2019-06-27T03:35:40.206Z,24.15
2019-06-27T03:38:11.303Z,24.05
2019-06-27T03:40:40.953Z,24.10
2019-06-27T03:43:10.838Z,24.14
2019-06-27T03:45:40.542Z,24.13
2019-06-27T03:48:10.068Z,24.17
2019-06-27T03:50:40.033Z,24.20
2019-06-27T03:53:09.692Z,24.29
2019-06-27T03:55:39.368Z,24.28
2019-06-27T03:58:10.155Z,24.21
2019-06-27T04:00:39.818Z,24.23
2019-06-27T04:03:09.618Z,24.42
2019-06-27T04:05:39.335Z,24.35
2019-06-27T04:08:10.426Z,24.41
2019-06-27T04:10:40.154Z,24.36
2019-06-27T04:13:09.839Z,24.48
2019-06-27T04:15:39.535Z,24.46
2019-06-27T04:18:09.371Z,24.46
2019-06-27T04:20:39.183Z,24.51
2019-06-27T04:23:09.052Z,24.50
2019-06-27T04:25:38.817Z,24.49
2019-06-27T04:28:08.597Z,24.50
2019-06-27T04:30:38.231Z,24.60
2019-06-27T04:33:07.920Z,24.58
2019-06-27T04:35:37.708Z,24.76
2019-06-27T04:38:07.467Z,24.73
2019-06-27T04:40:37.154Z,24.74
2019-06-27T04:43:07.008Z,24.81
2019-06-27T04:45:36.657Z,24.78
2019-06-27T04:48:06.406Z,24.78
2019-06-27T04:50:36.274Z,24.85
2019-06-27T04:53:05.990Z,24.93
2019-06-27T04:55:35.915Z,24.98
2019-06-27T04:58:05.478Z,24.97
2019-06-27T05:00:35.327Z,25.00
2019-06-27T05:03:04.995Z,25.02
2019-06-27T05:05:34.971Z,24.96
2019-06-27T05:08:04.837Z,24.94
2019-06-27T05:10:34.493Z,24.99
2019-06-27T05:13:04.533Z,25.01
2019-06-27T05:15:34.559Z,25.07
2019-06-27T05:18:04.176Z,25.02
2019-06-27T05:20:33.795Z,25.03
2019-06-27T05:23:03.607Z,25.16
2019-06-27T05:25:33.409Z,25.19
2019-06-27T05:28:03.148Z,25.19
2019-06-27T05:30:32.845Z,25.28
2019-06-27T05:33:02.561Z,25.26
2019-06-27T05:35:32.537Z,25.33
2019-06-27T05:38:02.478Z,25.29
2019-06-27T05:40:32.264Z,25.32
2019-06-27T05:43:02.052Z,25.32
2019-06-27T05:45:31.791Z,25.33
2019-06-27T05:48:01.602Z,25.35
2019-06-27T05:50:31.266Z,25.45
2019-06-27T05:53:00.951Z,25.40
2019-06-27T05:55:30.612Z,25.47
2019-06-27T05:58:00.309Z,25.51
2019-06-27T06:00:30.179Z,25.46
2019-06-27T06:02:59.972Z,25.60
2019-06-27T06:05:29.755Z,25.59
2019-06-27T06:07:59.650Z,25.73
2019-06-27T06:10:29.372Z,25.75
2019-06-27T06:12:59.301Z,25.89
2019-06-27T06:15:29.234Z,25.70
2019-06-27T06:17:58.960Z,25.73
2019-06-27T06:20:29.042Z,25.68
2019-06-27T06:22:58.752Z,25.80
2019-06-27T06:25:28.484Z,25.82
2019-06-27T06:27:58.798Z,25.96
2019-06-27T06:30:43.313Z,25.97
2019-06-27T06:33:00.477Z,25.97
2019-06-27T06:35:30.299Z,25.93
2019-06-27T06:38:00.200Z,25.92
2019-06-27T06:40:29.907Z,26.04
2019-06-27T06:43:00.721Z,26.10
2019-06-27T06:45:30.503Z,26.07
2019-06-27T06:48:00.137Z,26.25
2019-06-27T06:50:29.902Z,26.35
2019-06-27T06:52:59.596Z,26.48
2019-06-27T06:55:29.445Z,26.48
2019-06-27T06:57:59.381Z,26.60
2019-06-27T07:00:29.117Z,26.60
2019-06-27T07:02:58.706Z,26.64
2019-06-27T07:05:28.479Z,26.67
2019-06-27T07:07:58.315Z,26.81
2019-06-27T07:10:28.043Z,26.96
2019-06-27T07:12:57.991Z,27.07
2019-06-27T07:15:27.573Z,27.09
2019-06-27T07:17:57.349Z,27.22
2019-06-27T07:20:27.151Z,27.30
2019-06-27T07:22:57.016Z,27.37
2019-06-27T07:25:26.752Z,27.36
2019-06-27T07:27:56.407Z,27.48
2019-06-27T07:30:26.277Z,27.56
2019-06-27T07:32:55.965Z,27.68
2019-06-27T07:35:25.592Z,27.81
2019-06-27T07:37:55.419Z,27.95
2019-06-27T07:40:25.220Z,27.91
2019-06-27T07:42:54.818Z,28.11
2019-06-27T07:45:24.870Z,28.07
2019-06-27T07:47:54.569Z,28.14
2019-06-27T07:50:24.364Z,28.05
2019-06-27T07:52:54.158Z,28.25
2019-06-27T07:55:24.889Z,28.14
2019-06-27T07:57:54.684Z,28.08
2019-06-27T08:00:26.224Z,28.18
2019-06-27T08:02:56.009Z,28.18
2019-06-27T08:05:25.577Z,28.29
2019-06-27T08:07:55.264Z,28.48
2019-06-27T08:10:25.054Z,28.33
2019-06-27T08:12:54.677Z,28.38
2019-06-27T08:15:24.423Z,28.40
2019-06-27T08:17:54.040Z,28.23
2019-06-27T08:20:23.790Z,28.11
2019-06-27T08:22:53.364Z,27.91
2019-06-27T08:25:23.158Z,27.84
2019-06-27T08:27:52.917Z,27.72
2019-06-27T08:30:23.156Z,27.95
2019-06-27T08:32:53.460Z,28.12
2019-06-27T08:35:23.213Z,28.18
2019-06-27T08:37:52.868Z,28.25
2019-06-27T08:40:22.588Z,28.27
2019-06-27T08:42:52.640Z,28.42
2019-06-27T08:45:22.762Z,28.46
2019-06-27T08:47:52.386Z,28.33
2019-06-27T08:50:22.351Z,28.37
2019-06-27T08:52:51.974Z,28.42
2019-06-27T08:55:21.811Z,28.43
2019-06-27T08:57:51.474Z,28.71
2019-06-27T09:00:21.508Z,28.57
2019-06-27T09:02:51.223Z,28.73
2019-06-27T09:05:20.853Z,28.82
2019-06-27T09:07:50.660Z,28.80
2019-06-27T09:10:20.445Z,28.88
2019-06-27T09:12:50.038Z,29.02
2019-06-27T09:15:19.863Z,29.13
2019-06-27T09:17:49.506Z,29.10
2019-06-27T09:20:19.356Z,28.89
2019-06-27T09:22:48.995Z,28.86
2019-06-27T09:25:18.641Z,29.07
2019-06-27T09:27:48.254Z,29.08
2019-06-27T09:30:18.380Z,29.08
2019-06-27T09:32:48.114Z,29.31
2019-06-27T09:35:17.926Z,29.17
2019-06-27T09:37:47.873Z,29.15
2019-06-27T09:40:18.053Z,29.20
2019-06-27T09:42:47.834Z,29.32
2019-06-27T09:45:18.288Z,29.44
2019-06-27T09:47:48.039Z,29.64
2019-06-27T09:50:21.432Z,29.59
2019-06-27T09:52:49.441Z,29.75
2019-06-27T09:55:21.064Z,29.55
2019-06-27T09:57:50.897Z,29.59
2019-06-27T10:00:22.552Z,29.34
2019-06-27T10:02:52.911Z,29.35
2019-06-27T10:05:22.572Z,29.39
2019-06-27T10:07:52.403Z,29.42
2019-06-27T10:10:22.640Z,29.27
2019-06-27T10:12:54.565Z,29.50
2019-06-27T10:15:24.413Z,29.40
2019-06-27T10:17:55.013Z,29.13
2019-06-27T10:20:24.812Z,29.56
2019-06-27T10:22:54.672Z,29.82
2019-06-27T10:25:24.884Z,29.92
2019-06-27T10:27:54.988Z,29.95
2019-06-27T10:30:26.043Z,30.06
2019-06-27T10:32:59.693Z,30.22
2019-06-27T10:35:27.528Z,30.16
2019-06-27T10:37:57.249Z,30.23
2019-06-27T10:40:27.040Z,30.22
2019-06-27T10:42:56.770Z,30.21
2019-06-27T10:45:26.540Z,30.31
2019-06-27T10:47:56.462Z,30.40
2019-06-27T10:50:26.069Z,29.94
2019-06-27T10:52:55.752Z,30.35
2019-06-27T10:55:25.634Z,30.23
2019-06-27T10:57:55.414Z,30.27
2019-06-27T11:00:25.564Z,30.41
2019-06-27T11:02:55.322Z,30.32
2019-06-27T11:05:25.713Z,30.08
2019-06-27T11:07:55.499Z,30.05
2019-06-27T11:10:25.127Z,30.25
2019-06-27T11:12:54.847Z,30.16
2019-06-27T11:15:25.759Z,30.34
2019-06-27T11:17:55.682Z,30.36
2019-06-27T11:20:25.474Z,29.88
2019-06-27T11:22:55.169Z,30.35
2019-06-27T11:25:24.940Z,30.27
2019-06-27T11:27:54.901Z,30.34
2019-06-27T11:30:25.024Z,30.54
2019-06-27T11:32:54.682Z,30.48
2019-06-27T11:35:24.453Z,30.36
2019-06-27T11:37:54.327Z,30.38
2019-06-27T11:40:24.885Z,30.33
2019-06-27T11:42:54.917Z,30.44
2019-06-27T11:45:25.163Z,30.30
2019-06-27T11:47:54.853Z,30.21
2019-06-27T11:50:25.126Z,30.51
2019-06-27T11:52:54.978Z,30.70
2019-06-27T11:55:25.044Z,31.16
2019-06-27T11:57:56.712Z,31.52
2019-06-27T12:00:26.790Z,32.04
2019-06-27T12:02:57.000Z,32.39
2019-06-27T12:05:27.063Z,32.56
2019-06-27T12:07:56.642Z,32.62
2019-06-27T12:10:26.417Z,32.77
2019-06-27T12:12:56.153Z,33.33
2019-06-27T12:15:25.913Z,33.40
2019-06-27T12:17:55.666Z,33.88
2019-06-27T12:20:25.631Z,33.45
2019-06-27T12:22:56.867Z,33.96
2019-06-27T12:25:26.759Z,34.83
2019-06-27T12:27:56.606Z,35.08
2019-06-27T12:30:27.009Z,34.63
2019-06-27T12:32:57.146Z,34.97
2019-06-27T12:35:27.155Z,34.59
2019-06-27T12:37:56.854Z,35.90
2019-06-27T12:40:27.096Z,35.24
2019-06-27T12:42:57.105Z,36.44
2019-06-27T12:45:27.037Z,35.33
2019-06-27T12:47:56.810Z,34.73
2019-06-27T12:50:26.807Z,34.96
2019-06-27T12:52:56.737Z,35.56
2019-06-27T12:55:27.805Z,34.64
2019-06-27T12:57:57.622Z,36.11
2019-06-27T13:00:28.665Z,35.91
2019-06-27T13:02:59.102Z,36.08
2019-06-27T13:05:28.861Z,35.67
2019-06-27T13:07:58.777Z,36.23
2019-06-27T13:10:35.784Z,35.88
2019-06-27T13:13:06.408Z,35.61
2019-06-27T13:15:37.054Z,35.80
2019-06-27T13:18:06.975Z,36.42
2019-06-27T13:20:36.617Z,36.43
2019-06-27T13:23:06.478Z,37.27
2019-06-27T13:25:36.340Z,38.21
2019-06-27T13:28:06.032Z,38.89
2019-06-27T13:30:36.106Z,38.29
2019-06-27T13:33:06.192Z,37.88
2019-06-27T13:35:36.061Z,37.77
2019-06-27T13:38:05.766Z,37.96
2019-06-27T13:40:36.339Z,37.33
2019-06-27T13:43:06.056Z,37.21
2019-06-27T13:45:35.727Z,37.41
2019-06-27T13:48:07.309Z,38.05
2019-06-27T13:50:37.428Z,38.32
2019-06-27T13:53:07.428Z,37.07
2019-06-27T13:55:37.547Z,35.61
2019-06-27T13:58:07.254Z,35.10
2019-06-27T14:00:42.201Z,34.93
2019-06-27T14:03:12.162Z,34.73
2019-06-27T14:05:42.536Z,33.52
2019-06-27T14:08:12.641Z,32.67
2019-06-27T14:10:42.289Z,32.58
2019-06-27T14:13:11.971Z,32.53
2019-06-27T14:15:41.701Z,32.41
2019-06-27T14:18:11.329Z,32.28
2019-06-27T14:20:41.627Z,31.94
2019-06-27T14:23:11.366Z,32.13
2019-06-27T14:25:40.984Z,32.07
2019-06-27T14:28:11.954Z,32.16
2019-06-27T14:30:41.679Z,32.16
2019-06-27T14:33:11.627Z,32.04
2019-06-27T14:35:41.334Z,31.94
2019-06-27T14:38:11.016Z,31.85
2019-06-27T14:40:40.989Z,31.84
2019-06-27T14:43:10.713Z,31.79
2019-06-27T14:45:40.322Z,31.81
2019-06-27T14:48:10.497Z,32.09
2019-06-27T14:50:40.115Z,32.53
2019-06-27T14:53:09.918Z,32.40
2019-06-27T14:55:39.708Z,32.55
2019-06-27T14:58:09.420Z,32.46
2019-06-27T15:00:39.266Z,32.57
2019-06-27T15:03:09.197Z,32.04
2019-06-27T15:05:39.105Z,31.85
2019-06-27T15:08:08.782Z,31.77
2019-06-27T15:10:38.504Z,31.84
2019-06-27T15:13:08.099Z,31.78
2019-06-27T15:15:37.960Z,31.84
2019-06-27T15:18:07.547Z,31.79
2019-06-27T15:20:37.639Z,31.62
2019-06-27T15:23:07.295Z,31.71
2019-06-27T15:25:37.096Z,31.85
2019-06-27T15:28:06.662Z,31.73
2019-06-27T15:30:36.342Z,31.59
2019-06-27T15:33:06.164Z,31.67
2019-06-27T15:35:50.942Z,31.48
2019-06-27T15:38:07.383Z,31.41
2019-06-27T15:40:37.087Z,31.29
2019-06-27T15:43:06.801Z,31.70
2019-06-27T15:45:36.406Z,31.66
2019-06-27T15:48:06.213Z,32.28
2019-06-27T15:50:36.117Z,32.39
2019-06-27T15:53:05.775Z,32.14
2019-06-27T15:55:35.788Z,31.87
2019-06-27T15:58:05.504Z,31.79
2019-06-27T16:00:39.177Z,31.78
2019-06-27T16:03:06.791Z,31.88
2019-06-27T16:05:36.696Z,32.08
2019-06-27T16:08:06.405Z,32.17
2019-06-27T16:10:36.205Z,32.15
2019-06-27T16:13:05.960Z,33.15
2019-06-27T16:15:35.747Z,32.32
2019-06-27T16:18:05.712Z,32.15
2019-06-27T16:20:35.662Z,31.93
2019-06-27T16:23:05.538Z,31.96
2019-06-27T16:25:35.279Z,31.94
2019-06-27T16:28:04.980Z,32.17
2019-06-27T16:30:34.683Z,32.07
2019-06-27T16:33:04.283Z,31.95
2019-06-27T16:35:33.889Z,31.85
2019-06-27T16:38:03.534Z,31.77
2019-06-27T16:40:33.463Z,31.51
2019-06-27T16:43:03.141Z,31.37
2019-06-27T16:45:32.734Z,31.22
2019-06-27T16:48:02.615Z,31.36
2019-06-27T16:50:32.117Z,31.53
2019-06-27T16:53:01.763Z,32.14
2019-06-27T16:55:31.479Z,32.45
2019-06-27T16:58:01.272Z,32.20
2019-06-27T17:00:31.021Z,31.95
2019-06-27T17:03:00.732Z,31.49
2019-06-27T17:05:30.351Z,31.40
2019-06-27T17:07:59.946Z,31.48
2019-06-27T17:10:29.986Z,31.83
2019-06-27T17:12:59.598Z,32.09
2019-06-27T17:15:29.414Z,32.31
2019-06-27T17:17:59.221Z,32.45
2019-06-27T17:20:28.975Z,31.96
2019-06-27T17:22:58.622Z,31.82
2019-06-27T17:25:28.245Z,32.44
2019-06-27T17:27:57.925Z,32.61
2019-06-27T17:30:27.586Z,31.98
2019-06-27T17:32:57.281Z,32.17
2019-06-27T17:35:27.177Z,32.38
2019-06-27T17:37:56.764Z,31.64
2019-06-27T17:40:26.536Z,31.34
2019-06-27T17:42:56.304Z,31.07
2019-06-27T17:45:26.581Z,31.10
2019-06-27T17:47:56.684Z,30.79
2019-06-27T17:50:26.361Z,30.57
2019-06-27T17:52:56.024Z,30.70
2019-06-27T17:55:25.629Z,31.17
2019-06-27T17:57:55.407Z,32.12
2019-06-27T18:00:25.266Z,32.72
2019-06-27T18:02:55.485Z,33.83
2019-06-27T18:05:25.249Z,33.05
2019-06-27T18:07:55.000Z,33.67
2019-06-27T18:10:25.854Z,33.22
2019-06-27T18:12:55.626Z,33.16
2019-06-27T18:15:25.285Z,33.03
2019-06-27T18:17:55.006Z,33.49
2019-06-27T18:20:24.865Z,33.86
2019-06-27T18:22:54.653Z,33.27
2019-06-27T18:25:24.713Z,33.70
2019-06-27T18:27:54.470Z,32.86
2019-06-27T18:30:24.442Z,31.81
2019-06-27T18:32:54.226Z,31.30
2019-06-27T18:35:23.946Z,30.84
2019-06-27T18:37:54.275Z,30.48
2019-06-27T18:40:24.097Z,30.18
2019-06-27T18:42:53.751Z,29.98
2019-06-27T18:45:23.670Z,29.51
2019-06-27T18:47:53.271Z,29.19
2019-06-27T18:50:22.969Z,28.90
2019-06-27T18:52:52.678Z,28.61
2019-06-27T18:55:22.315Z,28.39
2019-06-27T18:57:52.021Z,28.43
2019-06-27T19:00:22.319Z,28.11
2019-06-27T19:02:51.961Z,27.99
2019-06-27T19:05:21.800Z,27.93
2019-06-27T19:07:51.524Z,27.81
2019-06-27T19:10:21.611Z,27.75
2019-06-27T19:12:51.815Z,27.58
2019-06-27T19:15:21.437Z,27.46
2019-06-27T19:17:51.023Z,27.52
2019-06-27T19:20:35.575Z,27.39
2019-06-27T19:23:23.017Z,27.30
2019-06-27T19:25:54.478Z,27.22
2019-06-27T19:28:24.124Z,27.08
2019-06-27T19:30:53.682Z,27.05
2019-06-27T19:33:23.332Z,26.86
2019-06-27T19:35:53.022Z,26.86
2019-06-27T19:38:22.697Z,26.82
2019-06-27T19:40:52.342Z,26.68
2019-06-27T19:43:27.685Z,26.57
2019-06-27T19:45:53.353Z,26.51
2019-06-27T19:48:23.063Z,26.40
2019-06-27T19:50:52.875Z,26.39
2019-06-27T19:53:22.491Z,26.27
2019-06-27T19:55:52.252Z,26.14
2019-06-27T19:58:21.852Z,26.19
2019-06-27T20:00:52.867Z,26.11
2019-06-27T20:03:23.609Z,26.09
2019-06-27T20:05:53.549Z,25.99
2019-06-27T20:08:23.115Z,25.92
2019-06-27T20:10:52.852Z,25.86
2019-06-27T20:13:22.812Z,25.84
2019-06-27T20:15:52.597Z,25.74
2019-06-27T20:18:22.531Z,25.73
2019-06-27T20:20:52.198Z,25.65
2019-06-27T20:23:22.068Z,25.50
2019-06-27T20:25:51.839Z,25.50
2019-06-27T20:28:21.807Z,25.52
2019-06-27T20:30:51.603Z,25.48
2019-06-27T20:33:21.395Z,25.38
2019-06-27T20:35:51.166Z,25.25
2019-06-27T20:38:33.826Z,25.15
2019-06-27T20:40:52.198Z,25.22
2019-06-27T20:43:21.774Z,25.12
2019-06-27T20:45:51.675Z,24.99
2019-06-27T20:48:21.555Z,25.02
2019-06-27T20:50:51.665Z,24.98
2019-06-27T20:53:21.340Z,24.80
2019-06-27T20:55:51.193Z,24.80
2019-06-27T20:58:21.370Z,24.81
2019-06-27T21:00:51.074Z,24.81
2019-06-27T21:03:20.634Z,24.71
2019-06-27T21:05:50.314Z,24.63
2019-06-27T21:08:20.017Z,24.63
2019-06-27T21:10:50.350Z,24.54
2019-06-27T21:13:20.253Z,24.53
2019-06-27T21:15:50.583Z,24.68
2019-06-27T21:18:20.663Z,24.49
2019-06-27T21:20:50.512Z,24.36
2019-06-27T21:23:20.141Z,24.29
2019-06-27T21:25:49.965Z,24.16
2019-06-27T21:28:19.756Z,24.18
2019-06-27T21:30:49.439Z,24.02
2019-06-27T21:33:19.101Z,23.98
2019-06-27T21:35:48.867Z,23.95
2019-06-27T21:38:18.538Z,23.90
2019-06-27T21:40:48.302Z,23.86
2019-06-27T21:43:17.896Z,23.83
2019-06-27T21:45:47.511Z,23.78
2019-06-27T21:48:17.057Z,23.75
2019-06-27T21:50:46.865Z,23.67
2019-06-27T21:53:16.389Z,23.70
2019-06-27T21:55:46.043Z,23.70
2019-06-27T21:58:15.730Z,23.52
2019-06-27T22:00:45.766Z,23.61
2019-06-27T22:03:15.720Z,23.56
2019-06-27T22:05:45.507Z,23.33
2019-06-27T22:08:15.165Z,23.36
2019-06-27T22:10:44.876Z,23.29
2019-06-27T22:13:14.750Z,23.30
2019-06-27T22:15:44.373Z,23.21
2019-06-27T22:18:14.156Z,23.26
2019-06-27T22:20:43.780Z,23.17
2019-06-27T22:23:13.379Z,23.12
2019-06-27T22:25:43.189Z,23.07
2019-06-27T22:28:12.890Z,23.12
2019-06-27T22:30:42.581Z,23.01
2019-06-27T22:33:12.417Z,22.90
2019-06-27T22:35:42.052Z,23.05
2019-06-27T22:38:29.353Z,22.89
2019-06-27T22:41:16.670Z,22.96
2019-06-27T22:44:04.244Z,22.80
2019-06-27T22:46:51.940Z,22.76
2019-06-27T22:49:21.137Z,22.89
2019-06-27T22:52:08.768Z,22.69
2019-06-27T22:54:40.542Z,22.59
2019-06-27T22:57:10.247Z,22.62
2019-06-27T22:59:40.105Z,22.56
2019-06-27T23:02:09.821Z,22.57
2019-06-27T23:04:39.617Z,22.52
2019-06-27T23:07:09.315Z,22.50
2019-06-27T23:09:38.994Z,22.44
2019-06-27T23:12:08.742Z,22.40
2019-06-27T23:14:38.409Z,22.40
2019-06-27T23:17:08.296Z,22.37
2019-06-27T23:19:37.983Z,22.31
2019-06-27T23:22:07.994Z,22.25
2019-06-27T23:24:37.569Z,22.23
2019-06-27T23:27:07.527Z,22.11
2019-06-27T23:29:37.266Z,22.18
2019-06-27T23:32:06.976Z,22.10
2019-06-27T23:34:37.045Z,22.16
2019-06-27T23:37:06.668Z,22.18
2019-06-27T23:39:36.288Z,22.16
2019-06-27T23:42:06.080Z,22.13
2019-06-27T23:44:35.674Z,21.91
2019-06-27T23:47:05.492Z,21.93
2019-06-27T23:49:35.220Z,21.88
2019-06-27T23:52:04.835Z,21.85
2019-06-27T23:54:34.653Z,21.71
2019-06-27T23:57:04.606Z,21.66
2019-06-27T23:59:34.343Z,21.62
